createdAt,value
2017-12-10T00:02:24.485Z,2.83
2017-12-10T00:04:53.397Z,4.68
2017-12-10T00:07:21.521Z,3.15
2017-12-10T00:09:49.720Z,2.60
2017-12-10T00:12:17.835Z,3.05
2017-12-10T00:14:46.027Z,2.85
2017-12-10T00:17:14.152Z,3.10
2017-12-10T00:19:43.056Z,2.83
2017-12-10T00:22:11.181Z,3.30
2017-12-10T00:24:39.325Z,3.20
2017-12-10T00:27:07.452Z,3.40
2017-12-10T00:29:35.614Z,3.37
2017-12-10T00:32:03.740Z,4.25
2017-12-10T00:34:31.889Z,3.05
2017-12-10T00:37:00.779Z,3.00
2017-12-10T00:39:28.937Z,3.37
2017-12-10T00:41:57.052Z,4.18
2017-12-10T00:44:25.189Z,3.92
2017-12-10T00:46:53.314Z,3.60
2017-12-10T00:49:21.467Z,3.50
2017-12-10T00:51:49.585Z,4.05
2017-12-10T00:54:17.725Z,4.32
2017-12-10T00:56:45.844Z,5.07
2017-12-10T00:59:14.001Z,3.70
2017-12-10T01:01:42.125Z,5.05
2017-12-10T01:04:10.252Z,4.12
2017-12-10T01:06:38.397Z,4.90
2017-12-10T01:09:06.537Z,3.95
2017-12-10T01:11:34.695Z,5.30
2017-12-10T01:14:02.813Z,3.72
2017-12-10T01:16:30.957Z,4.32
2017-12-10T01:18:59.076Z,5.80
2017-12-10T01:21:27.221Z,4.68
2017-12-10T01:23:55.350Z,4.93
2017-12-10T01:26:23.504Z,4.28
2017-12-10T01:28:51.623Z,5.65
2017-12-10T01:31:19.773Z,5.03
2017-12-10T01:33:47.890Z,5.65
2017-12-10T01:36:16.040Z,4.05
2017-12-10T01:38:44.156Z,4.57
2017-12-10T01:41:12.310Z,5.72
2017-12-10T01:43:40.465Z,4.37
2017-12-10T01:46:08.613Z,5.30
2017-12-10T01:48:36.735Z,5.05
2017-12-10T01:51:04.877Z,4.93
2017-12-10T01:53:33.006Z,4.12
2017-12-10T01:56:01.152Z,4.75
2017-12-10T01:58:29.268Z,4.97
2017-12-10T02:00:57.393Z,4.25
2017-12-10T02:03:25.536Z,5.22
2017-12-10T02:05:54.416Z,5.87
2017-12-10T02:08:22.577Z,6.43
2017-12-10T02:10:50.702Z,6.65
2017-12-10T02:13:18.862Z,5.97
2017-12-10T02:15:46.985Z,5.75
2017-12-10T02:18:15.138Z,6.12
2017-12-10T02:20:43.264Z,7.12
2017-12-10T02:23:12.184Z,6.12
2017-12-10T02:25:40.300Z,5.05
2017-12-10T02:28:08.445Z,6.40
2017-12-10T02:30:36.574Z,7.55
2017-12-10T02:33:04.713Z,7.25
2017-12-10T02:35:32.832Z,6.25
2017-12-10T02:38:01.034Z,6.57
2017-12-10T02:40:29.163Z,7.50
2017-12-10T02:42:57.308Z,6.62
2017-12-10T02:45:25.438Z,7.90
2017-12-10T02:47:53.587Z,7.07
2017-12-10T02:50:22.473Z,7.30
2017-12-10T02:52:50.626Z,6.55
2017-12-10T02:55:18.740Z,6.32
2017-12-10T02:57:46.889Z,9.13
2017-12-10T03:00:15.781Z,9.85
2017-12-10T03:02:44.699Z,10.02
2017-12-10T03:05:12.821Z,8.10
2017-12-10T03:07:40.985Z,9.05
2017-12-10T03:10:09.106Z,8.75
2017-12-10T03:12:37.264Z,9.13
2017-12-10T03:15:05.385Z,9.85
2017-12-10T03:17:33.558Z,9.30
2017-12-10T03:20:01.694Z,10.38
2017-12-10T03:22:29.850Z,10.55
2017-12-10T03:24:57.978Z,9.95
2017-12-10T03:27:26.134Z,10.30
2017-12-10T03:29:54.266Z,10.45
2017-12-10T03:32:22.428Z,10.48
2017-12-10T03:34:50.557Z,8.88
2017-12-10T03:37:18.725Z,10.10
2017-12-10T03:39:46.857Z,10.10
2017-12-10T03:42:14.984Z,11.90
2017-12-10T03:44:43.132Z,11.18
2017-12-10T03:47:11.270Z,12.02
2017-12-10T03:49:39.424Z,11.70
2017-12-10T03:52:07.557Z,11.50
2017-12-10T03:54:35.704Z,12.15
2017-12-10T03:57:03.835Z,11.07
2017-12-10T03:59:31.984Z,12.05
2017-12-10T04:02:00.112Z,11.48
2017-12-10T04:04:28.268Z,11.07
2017-12-10T04:06:56.401Z,12.57
2017-12-10T04:09:24.582Z,10.40
2017-12-10T04:11:52.717Z,11.20
2017-12-10T04:14:20.875Z,11.50
2017-12-10T04:16:49.006Z,12.20
2017-12-10T04:19:17.156Z,11.43
2017-12-10T04:21:45.293Z,13.25
2017-12-10T04:24:13.454Z,13.18
2017-12-10T04:26:41.585Z,10.60
2017-12-10T04:29:09.745Z,11.90
2017-12-10T04:31:38.637Z,11.90
2017-12-10T04:34:06.798Z,12.73
2017-12-10T04:36:35.694Z,10.50
2017-12-10T04:39:03.849Z,11.25
2017-12-10T04:41:31.969Z,10.02
2017-12-10T04:44:00.125Z,11.68
2017-12-10T04:46:28.255Z,11.40
2017-12-10T04:48:56.408Z,11.40
2017-12-10T04:51:24.534Z,11.85
2017-12-10T04:53:53.424Z,12.88
2017-12-10T04:56:21.582Z,12.35
2017-12-10T04:58:49.713Z,12.55
2017-12-10T05:01:17.875Z,12.93
2017-12-10T05:03:45.997Z,12.55
2017-12-10T05:06:14.152Z,12.18
2017-12-10T05:08:42.284Z,13.35
2017-12-10T05:11:10.440Z,14.50
2017-12-10T05:13:38.570Z,15.00
2017-12-10T05:16:06.719Z,13.90
2017-12-10T05:18:34.848Z,13.07
2017-12-10T05:21:03.768Z,15.10
2017-12-10T05:23:31.897Z,14.13
2017-12-10T05:26:00.049Z,15.70
2017-12-10T05:28:28.179Z,13.80
2017-12-10T05:30:56.345Z,13.45
2017-12-10T05:33:24.477Z,15.38
2017-12-10T05:35:52.632Z,14.00
2017-12-10T05:38:20.763Z,12.65
2017-12-10T05:40:48.916Z,13.75
2017-12-10T05:43:17.044Z,11.20
2017-12-10T05:45:45.194Z,13.85
2017-12-10T05:48:13.320Z,13.43
2017-12-10T05:50:41.497Z,13.98
2017-12-10T05:53:09.625Z,12.45
2017-12-10T05:55:37.781Z,13.13
2017-12-10T05:58:05.908Z,12.85
2017-12-10T06:00:34.065Z,12.37
2017-12-10T06:03:02.203Z,15.68
2017-12-10T06:05:30.348Z,13.73
2017-12-10T06:07:58.481Z,12.13
2017-12-10T06:10:26.632Z,12.77
2017-12-10T06:12:54.765Z,13.90
2017-12-10T06:15:22.927Z,14.18
2017-12-10T06:17:51.048Z,12.00
2017-12-10T06:20:19.202Z,12.10
2017-12-10T06:22:47.324Z,11.88
2017-12-10T06:25:15.456Z,12.57
2017-12-10T06:27:43.658Z,12.77
2017-12-10T06:30:11.760Z,14.80
2017-12-10T06:32:39.913Z,10.30
2017-12-10T06:35:08.046Z,12.60
2017-12-10T06:37:36.201Z,12.37
2017-12-10T06:40:04.334Z,12.02
2017-12-10T06:42:32.514Z,10.95
2017-12-10T06:45:01.414Z,10.70
2017-12-10T06:47:29.577Z,11.55
2017-12-10T06:49:57.697Z,10.52
2017-12-10T06:52:25.848Z,10.38
2017-12-10T06:54:53.986Z,10.50
2017-12-10T06:57:22.128Z,10.57
2017-12-10T06:59:50.262Z,7.80
2017-12-10T07:02:18.418Z,8.80
2017-12-10T07:04:46.541Z,9.07
2017-12-10T07:07:15.474Z,9.00
2017-12-10T07:09:43.592Z,9.65
2017-12-10T07:12:11.750Z,10.73
2017-12-10T07:14:39.873Z,8.05
2017-12-10T07:17:08.020Z,9.05
2017-12-10T07:19:36.149Z,9.50
2017-12-10T07:22:04.304Z,9.50
2017-12-10T07:24:32.428Z,9.93
2017-12-10T07:27:00.573Z,9.63
2017-12-10T07:29:28.705Z,10.45
2017-12-10T07:31:56.857Z,8.63
2017-12-10T07:34:25.741Z,8.55
2017-12-10T07:36:53.907Z,8.48
2017-12-10T07:39:22.035Z,10.25
2017-12-10T07:41:50.181Z,9.05
2017-12-10T07:44:18.312Z,10.57
2017-12-10T07:46:46.466Z,8.32
2017-12-10T07:49:14.584Z,8.60
2017-12-10T07:51:43.468Z,6.97
2017-12-10T07:54:11.633Z,8.30
2017-12-10T07:56:39.750Z,7.78
2017-12-10T07:59:07.909Z,8.32
2017-12-10T08:01:36.033Z,8.75
2017-12-10T08:04:04.177Z,9.18
2017-12-10T08:06:32.331Z,7.25
2017-12-10T08:09:01.245Z,7.30
2017-12-10T08:11:29.371Z,8.35
2017-12-10T08:13:57.528Z,8.27
2017-12-10T08:16:25.652Z,5.12
2017-12-10T08:18:53.813Z,7.55
2017-12-10T08:21:21.945Z,8.10
2017-12-10T08:23:50.088Z,7.28
2017-12-10T08:26:18.224Z,6.72
2017-12-10T08:28:46.377Z,7.62
2017-12-10T08:31:14.509Z,6.82
2017-12-10T08:33:42.649Z,7.45
2017-12-10T08:36:11.561Z,7.82
2017-12-10T08:38:39.711Z,6.12
2017-12-10T08:41:08.597Z,5.82
2017-12-10T08:43:36.759Z,6.93
2017-12-10T08:46:04.897Z,7.45
2017-12-10T08:48:33.045Z,8.38
2017-12-10T08:51:01.169Z,7.28
2017-12-10T08:53:29.285Z,6.07
2017-12-10T08:55:57.442Z,6.65
2017-12-10T08:58:26.324Z,7.00
2017-12-10T09:00:54.560Z,7.35
2017-12-10T09:03:22.690Z,6.03
2017-12-10T09:05:50.840Z,5.22
2017-12-10T09:08:18.956Z,6.20
2017-12-10T09:10:47.106Z,5.30
2017-12-10T09:13:15.994Z,2.72
2017-12-10T09:15:44.138Z,5.40
2017-12-10T09:18:12.252Z,6.10
2017-12-10T09:20:40.397Z,6.18
2017-12-10T09:23:08.541Z,5.78
2017-12-10T09:25:36.694Z,5.10
2017-12-10T09:28:04.812Z,5.03
2017-12-10T09:30:32.992Z,5.65
2017-12-10T09:33:01.115Z,5.10
2017-12-10T09:35:29.266Z,4.85
2017-12-10T09:37:57.382Z,5.65
2017-12-10T09:40:25.582Z,4.85
2017-12-10T09:42:53.706Z,4.00
2017-12-10T09:45:21.846Z,4.43
2017-12-10T09:47:49.969Z,5.05
2017-12-10T09:50:18.117Z,5.15
2017-12-10T09:55:20.688Z,5.32
2017-12-10T09:57:49.587Z,5.65
2017-12-10T10:00:17.793Z,4.60
2017-12-10T10:02:45.919Z,4.90
2017-12-10T10:05:14.069Z,5.28
2017-12-10T10:07:42.189Z,5.03
2017-12-10T10:10:13.704Z,4.65
2017-12-10T10:12:41.908Z,4.75
2017-12-10T10:15:10.013Z,4.57
2017-12-10T10:17:38.153Z,5.47
2017-12-10T10:20:06.277Z,5.03
2017-12-10T10:22:34.426Z,3.75
2017-12-10T10:25:02.550Z,4.55
2017-12-10T10:27:31.470Z,4.10
2017-12-10T10:29:59.585Z,4.78
2017-12-10T10:32:27.734Z,3.62
2017-12-10T10:34:55.864Z,4.00
2017-12-10T10:37:24.024Z,3.92
2017-12-10T10:39:52.146Z,4.35
2017-12-10T10:42:20.290Z,4.10
2017-12-10T10:44:48.434Z,4.00
2017-12-10T10:47:16.601Z,3.95
2017-12-10T10:49:44.750Z,4.62
2017-12-10T10:52:12.905Z,4.07
2017-12-10T10:54:41.016Z,3.75
2017-12-10T10:57:09.190Z,5.07
2017-12-10T10:59:37.322Z,4.47
2017-12-10T11:02:05.467Z,4.00
2017-12-10T11:04:33.587Z,4.40
2017-12-10T11:07:01.740Z,3.30
2017-12-10T11:09:29.864Z,3.00
2017-12-10T11:11:57.992Z,3.60
2017-12-10T11:14:26.141Z,3.22
2017-12-10T11:16:54.288Z,3.10
2017-12-10T11:19:22.437Z,4.85
2017-12-10T11:21:50.600Z,2.90
2017-12-10T11:24:18.729Z,3.90
2017-12-10T11:26:46.860Z,5.28
2017-12-10T11:29:15.009Z,3.85
2017-12-10T11:31:43.167Z,3.95
2017-12-10T11:34:11.328Z,2.87
2017-12-10T11:36:39.452Z,3.53
2017-12-10T11:39:07.639Z,3.90
2017-12-10T11:41:35.761Z,5.85
2017-12-10T11:44:03.915Z,4.45
2017-12-10T11:46:32.066Z,5.20
2017-12-10T11:49:00.234Z,4.30
2017-12-10T11:51:28.358Z,4.87
2017-12-10T11:53:56.500Z,4.07
2017-12-10T11:56:24.671Z,3.75
2017-12-10T11:58:52.834Z,3.50
2017-12-10T12:01:20.950Z,3.00
2017-12-10T12:03:49.869Z,4.35
2017-12-10T12:06:18.081Z,4.53
2017-12-10T12:08:46.237Z,4.87
2017-12-10T12:11:14.582Z,3.47
2017-12-10T12:13:42.733Z,5.00
2017-12-10T12:16:10.905Z,4.50
2017-12-10T12:18:39.792Z,4.72
2017-12-10T12:21:07.939Z,5.68
2017-12-10T12:23:36.073Z,4.65
2017-12-10T12:26:04.221Z,5.57
2017-12-10T12:28:32.355Z,4.40
2017-12-10T12:31:00.546Z,3.37
2017-12-10T12:33:29.457Z,5.10
2017-12-10T12:35:57.611Z,4.37
2017-12-10T12:38:25.763Z,3.83
2017-12-10T12:40:53.917Z,3.85
2017-12-10T12:43:22.040Z,4.22
2017-12-10T12:45:50.184Z,4.57
2017-12-10T12:48:18.301Z,2.60
2017-12-10T12:50:46.453Z,3.33
2017-12-10T12:53:14.568Z,4.15
2017-12-10T12:55:42.721Z,3.90
2017-12-10T12:58:10.871Z,3.08
2017-12-10T13:00:39.042Z,4.20
2017-12-10T13:03:07.272Z,3.17
2017-12-10T13:05:35.671Z,3.62
2017-12-10T13:08:04.096Z,3.47
2017-12-10T13:10:34.934Z,3.60
2017-12-10T13:13:03.091Z,3.15
2017-12-10T13:15:31.329Z,3.60
2017-12-10T13:17:59.640Z,3.37
2017-12-10T13:20:27.960Z,5.18
2017-12-10T13:22:56.207Z,3.40
2017-12-10T13:25:25.256Z,2.42
2017-12-10T13:27:53.500Z,3.28
2017-12-10T13:30:21.634Z,3.75
2017-12-10T13:32:49.786Z,3.08
2017-12-10T13:35:18.054Z,3.25
2017-12-10T13:37:46.209Z,4.25
2017-12-10T13:40:14.337Z,2.67
2017-12-10T13:42:42.493Z,3.80
2017-12-10T13:45:10.810Z,2.62
2017-12-10T13:47:38.956Z,2.97
2017-12-10T13:50:07.072Z,4.05
2017-12-10T13:52:35.224Z,2.75
2017-12-10T13:55:03.355Z,3.97
2017-12-10T13:57:31.501Z,4.05
2017-12-10T13:59:59.771Z,3.00
2017-12-10T14:02:27.936Z,2.62
2017-12-10T14:04:56.044Z,2.90
2017-12-10T14:07:28.355Z,3.45
2017-12-10T14:09:56.648Z,2.87
2017-12-10T14:12:24.793Z,3.20
2017-12-10T14:14:52.923Z,4.87
2017-12-10T14:17:21.093Z,3.80
2017-12-10T14:19:49.226Z,3.75
2017-12-10T14:22:18.151Z,3.15
2017-12-10T14:24:46.309Z,3.03
2017-12-10T14:27:14.462Z,3.10
2017-12-10T14:29:42.642Z,3.87
2017-12-10T14:32:10.819Z,2.37
2017-12-10T14:34:39.724Z,3.55
2017-12-10T14:37:07.836Z,2.83
2017-12-10T14:39:36.179Z,3.80
2017-12-10T14:42:04.304Z,2.78
2017-12-10T14:44:32.455Z,3.80
2017-12-10T14:47:00.648Z,2.58
2017-12-10T14:49:28.824Z,3.33
2017-12-10T14:51:56.995Z,4.30
2017-12-10T14:54:25.146Z,3.62
2017-12-10T14:56:53.318Z,3.85
2017-12-10T14:59:21.465Z,2.53
2017-12-10T15:01:49.594Z,3.40
2017-12-10T15:04:17.741Z,3.25
2017-12-10T15:06:45.866Z,4.10
2017-12-10T15:09:14.007Z,4.15
2017-12-10T15:11:42.129Z,5.15
2017-12-10T15:14:11.129Z,4.00
2017-12-10T15:16:39.305Z,3.10
2017-12-10T15:19:07.449Z,4.20
2017-12-10T15:21:35.573Z,4.07
2017-12-10T15:24:03.724Z,3.00
2017-12-10T15:26:31.860Z,2.80
2017-12-10T15:29:00.012Z,2.60
2017-12-10T15:31:28.142Z,2.80
2017-12-10T15:33:56.258Z,2.80
2017-12-10T15:36:24.424Z,2.37
2017-12-10T15:38:52.553Z,2.92
2017-12-10T15:41:20.707Z,3.12
2017-12-10T15:43:48.843Z,3.45
2017-12-10T15:46:17.010Z,2.85
2017-12-10T15:48:45.170Z,2.95
2017-12-10T15:51:13.326Z,2.70
2017-12-10T15:53:41.533Z,2.97
2017-12-10T15:56:09.712Z,2.28
2017-12-10T15:58:37.835Z,2.45
2017-12-10T16:01:05.995Z,2.83
2017-12-10T16:03:34.888Z,2.22
2017-12-10T16:06:03.039Z,2.92
2017-12-10T16:08:31.189Z,3.90
2017-12-10T16:10:59.372Z,2.58
2017-12-10T16:13:27.591Z,2.60
2017-12-10T16:15:55.919Z,1.70
2017-12-10T16:18:24.046Z,3.03
2017-12-10T16:20:52.209Z,2.10
2017-12-10T16:23:20.341Z,2.67
2017-12-10T16:25:48.529Z,3.47
2017-12-10T16:28:16.773Z,2.53
2017-12-10T16:30:44.939Z,2.45
2017-12-10T16:33:13.178Z,2.35
2017-12-10T16:35:41.541Z,2.65
2017-12-10T16:38:11.038Z,4.97
2017-12-10T16:40:39.981Z,1.77
2017-12-10T16:43:08.146Z,1.52
2017-12-10T16:45:36.330Z,2.20
2017-12-10T16:48:04.489Z,2.10
2017-12-10T16:50:32.684Z,1.80
2017-12-10T16:53:00.885Z,2.87
2017-12-10T16:55:29.018Z,1.75
2017-12-10T16:57:57.178Z,1.90
2017-12-10T17:00:25.318Z,2.30
2017-12-10T17:02:53.467Z,2.30
2017-12-10T17:05:22.763Z,2.72
2017-12-10T17:07:50.927Z,2.60
2017-12-10T17:10:19.088Z,2.35
2017-12-10T17:12:47.274Z,2.50
2017-12-10T17:15:15.437Z,2.10
2017-12-10T17:17:43.587Z,2.55
2017-12-10T17:20:12.481Z,3.20
2017-12-10T17:22:40.680Z,2.47
2017-12-10T17:25:08.832Z,2.75
2017-12-10T17:27:37.022Z,2.60
2017-12-10T17:30:05.486Z,2.95
2017-12-10T17:32:34.417Z,3.22
2017-12-10T17:35:02.543Z,3.03
2017-12-10T17:37:31.457Z,2.55
2017-12-10T17:39:59.611Z,2.80
2017-12-10T17:42:28.551Z,2.85
2017-12-10T17:44:56.907Z,2.70
2017-12-10T17:47:25.160Z,3.72
2017-12-10T17:49:53.287Z,2.95
2017-12-10T17:52:21.507Z,2.72
2017-12-10T17:54:49.694Z,3.35
2017-12-10T17:57:17.868Z,2.78
2017-12-10T17:59:46.159Z,3.45
2017-12-10T18:02:14.433Z,2.60
2017-12-10T18:04:43.572Z,3.30
2017-12-10T18:07:11.728Z,4.00
2017-12-10T18:09:39.893Z,3.25
2017-12-10T18:12:08.198Z,3.40
2017-12-10T18:14:36.404Z,4.20
2017-12-10T18:17:04.689Z,4.15
2017-12-10T18:19:33.207Z,4.70
2017-12-10T18:22:01.377Z,4.62
2017-12-10T18:24:29.603Z,4.30
2017-12-10T18:26:57.752Z,3.70
2017-12-10T18:29:25.936Z,3.70
2017-12-10T18:31:54.337Z,4.90
2017-12-10T18:34:22.682Z,3.60
2017-12-10T18:36:51.223Z,3.22
2017-12-10T18:39:19.694Z,4.30
2017-12-10T18:41:48.449Z,5.40
2017-12-10T18:44:18.080Z,5.03
2017-12-10T18:46:47.168Z,5.00
2017-12-10T18:49:15.733Z,4.93
2017-12-10T18:51:45.106Z,4.00
2017-12-10T18:54:15.070Z,4.70
2017-12-10T18:56:44.011Z,4.30
2017-12-10T18:59:12.942Z,4.82
2017-12-10T19:01:41.858Z,5.05
2017-12-10T19:04:10.026Z,4.45
2017-12-10T19:06:38.572Z,5.72
2017-12-10T19:09:06.762Z,6.37
2017-12-10T19:11:36.321Z,4.53
2017-12-10T19:14:07.199Z,4.80
2017-12-10T19:16:35.503Z,4.37
2017-12-10T19:19:03.663Z,4.35
2017-12-10T19:21:32.620Z,4.80
2017-12-10T19:24:01.011Z,4.15
2017-12-10T19:26:29.193Z,5.18
2017-12-10T19:28:57.373Z,6.32
2017-12-10T19:31:25.638Z,5.00
2017-12-10T19:33:53.762Z,4.75
2017-12-10T19:36:21.953Z,5.40
2017-12-10T19:38:50.102Z,4.20
2017-12-10T19:41:18.297Z,4.55
2017-12-10T19:43:46.421Z,5.95
2017-12-10T19:46:14.793Z,5.82
2017-12-10T19:48:43.013Z,5.30
2017-12-10T19:51:11.312Z,5.78
2017-12-10T19:53:39.452Z,5.18
2017-12-10T19:56:07.618Z,5.35
2017-12-10T19:58:35.776Z,5.50
2017-12-10T20:01:04.214Z,5.97
2017-12-10T20:03:32.352Z,5.60
2017-12-10T20:06:00.618Z,4.85
2017-12-10T20:08:28.744Z,5.93
2017-12-10T20:10:56.964Z,6.32
2017-12-10T20:13:25.251Z,4.72
2017-12-10T20:15:53.805Z,5.35
2017-12-10T20:18:32.972Z,7.10
2017-12-10T20:21:01.173Z,6.37
2017-12-10T20:23:29.359Z,6.75
2017-12-10T20:25:57.517Z,6.43
2017-12-10T20:28:25.688Z,6.60
2017-12-10T20:30:53.812Z,5.72
2017-12-10T20:33:22.101Z,6.87
2017-12-10T20:35:50.985Z,6.90
2017-12-10T20:38:19.146Z,6.07
2017-12-10T20:40:47.299Z,5.60
2017-12-10T20:43:15.470Z,6.70
2017-12-10T20:45:43.734Z,6.18
2017-12-10T20:48:11.904Z,7.70
2017-12-10T20:50:40.833Z,6.43
2017-12-10T20:53:09.001Z,7.20
2017-12-10T20:55:37.152Z,7.78
2017-12-10T20:58:05.313Z,8.40
2017-12-10T21:00:33.462Z,6.87
2017-12-10T21:03:01.618Z,6.60
2017-12-10T21:05:29.841Z,6.70
2017-12-10T21:07:58.101Z,5.90
2017-12-10T21:10:26.242Z,6.80
2017-12-10T21:12:55.161Z,7.25
2017-12-10T21:15:24.626Z,5.00
2017-12-10T21:17:52.781Z,7.22
2017-12-10T21:20:20.914Z,6.87
2017-12-10T21:22:49.118Z,6.50
2017-12-10T21:25:17.248Z,7.10
2017-12-10T21:27:45.394Z,7.20
2017-12-10T21:30:13.561Z,7.28
2017-12-10T21:32:41.777Z,4.80
2017-12-10T21:35:09.946Z,6.80
2017-12-10T21:37:38.074Z,7.25
2017-12-10T21:40:06.229Z,7.70
2017-12-10T21:42:34.364Z,7.53
2017-12-10T21:45:02.518Z,8.48
2017-12-10T21:47:30.708Z,7.10
2017-12-10T21:49:58.868Z,7.50
2017-12-10T21:52:27.002Z,9.10
2017-12-10T21:54:55.181Z,7.47
2017-12-10T21:57:23.315Z,7.35
2017-12-10T21:59:51.495Z,8.02
2017-12-10T22:02:19.674Z,7.90
2017-12-10T22:04:47.955Z,8.05
2017-12-10T22:07:16.090Z,7.95
2017-12-10T22:09:44.233Z,7.95
2017-12-10T22:12:12.377Z,8.23
2017-12-10T22:14:40.543Z,8.50
2017-12-10T22:17:08.669Z,9.15
2017-12-10T22:19:36.856Z,8.00
2017-12-10T22:22:04.988Z,7.80
2017-12-10T22:24:33.139Z,7.90
2017-12-10T22:27:01.319Z,7.18
2017-12-10T22:29:29.508Z,8.45
2017-12-10T22:31:57.642Z,7.47
2017-12-10T22:34:25.812Z,8.23
2017-12-10T22:36:53.934Z,6.35
2017-12-10T22:39:22.111Z,7.82
2017-12-10T22:41:50.237Z,8.57
2017-12-10T22:44:18.404Z,7.43
2017-12-10T22:46:46.535Z,7.57
2017-12-10T22:49:14.661Z,8.48
2017-12-10T22:51:42.818Z,7.32
2017-12-10T22:54:10.940Z,8.18
2017-12-10T22:56:39.104Z,7.53
2017-12-10T22:59:07.226Z,7.60
2017-12-10T23:01:36.182Z,7.50
2017-12-10T23:04:04.326Z,8.00
2017-12-10T23:06:32.515Z,7.87
2017-12-10T23:09:00.641Z,6.80
2017-12-10T23:11:28.802Z,8.68
2017-12-10T23:14:04.556Z,7.40
2017-12-10T23:16:33.490Z,8.23
2017-12-10T23:19:01.615Z,8.65
2017-12-10T23:21:30.546Z,7.57
2017-12-10T23:23:58.685Z,7.97
2017-12-10T23:26:27.614Z,9.70
2017-12-10T23:28:55.749Z,7.80
2017-12-10T23:31:24.685Z,8.95
2017-12-10T23:33:52.812Z,7.30
2017-12-10T23:36:21.745Z,7.65
2017-12-10T23:38:49.888Z,8.30
2017-12-10T23:41:18.804Z,7.82
2017-12-10T23:43:46.939Z,8.10
2017-12-10T23:46:15.088Z,7.07
2017-12-10T23:48:43.210Z,8.52
2017-12-10T23:51:11.393Z,7.75
2017-12-10T23:53:39.519Z,7.87
2017-12-10T23:56:07.690Z,7.93
2017-12-10T23:58:35.812Z,7.35
